Terminal Aerodrome Forecast
Issued by NWS

Home | Current Version | Previous Version | Text Only | Print | Product List | Glossary On
Versions: 1 2 3 4 5 6 7 8 9 10 11 12 13 14 15 16 17 18 19 20 21
000
FTUS45 KRIW 301100
TAFJAC
TAF
KJAC 301124Z 3012/3112 36006KT P6SM VCFG FEW004 SCT250
      TEMPO 3012/3014 4SM BR
     FM301600 VRB05KT P6SM SCT100
     FM301900 20011KT P6SM SCT060
     FM302200 20014G20KT P6SM VCTS BKN060CB
     FM310300 20006KT P6SM SCT080
     FM310900 35005KT P6SM VCFG FEW005 SCT080
      AMD LTD TO CLD VIS AND WIND=

USA.gov is the U.S. government's official web portal to all federal, state and local government web resources and services.